createdAt,value
2022-09-23T00:02:24.820Z,100.00
2022-09-23T00:04:51.357Z,100.00
2022-09-23T00:07:18.001Z,100.00
2022-09-23T00:09:44.509Z,100.00
2022-09-23T00:12:12.636Z,100.00
2022-09-23T00:14:39.495Z,100.00
2022-09-23T00:17:06.278Z,100.00
2022-09-23T00:19:32.981Z,100.00
2022-09-23T00:21:59.518Z,100.00
2022-09-23T00:24:26.163Z,100.00
2022-09-23T00:26:52.645Z,100.00
2022-09-23T00:29:20.668Z,100.00
2022-09-23T00:31:47.177Z,100.00
2022-09-23T00:34:13.834Z,100.00
2022-09-23T00:36:40.320Z,100.00
2022-09-23T00:39:06.939Z,100.00
2022-09-23T00:41:34.353Z,100.00
2022-09-23T00:44:23.043Z,100.00
2022-09-23T00:46:50.954Z,100.00
2022-09-23T00:49:23.218Z,100.00
2022-09-23T00:51:53.762Z,100.00
2022-09-23T00:54:21.953Z,100.00
2022-09-23T00:56:48.482Z,100.00
2022-09-23T00:59:15.412Z,100.00
2022-09-23T01:01:44.175Z,100.00
2022-09-23T01:04:12.708Z,100.00
2022-09-23T01:06:39.724Z,100.00
2022-09-23T01:09:06.458Z,100.00
2022-09-23T01:11:42.444Z,100.00
2022-09-23T01:14:24.873Z,100.00
2022-09-23T01:16:57.834Z,100.00
2022-09-23T01:19:49.405Z,100.00
2022-09-23T01:22:24.962Z,100.00
2022-09-23T01:25:11.835Z,100.00
2022-09-23T01:27:52.328Z,100.00
2022-09-23T01:30:36.246Z,100.00
2022-09-23T01:33:09.901Z,100.00
2022-09-23T01:35:45.646Z,100.00
2022-09-23T01:38:22.068Z,100.00
2022-09-23T01:40:57.403Z,100.00
2022-09-23T01:43:31.550Z,100.00
2022-09-23T01:46:03.630Z,100.00
2022-09-23T01:48:36.629Z,100.00
2022-09-23T01:51:09.144Z,100.00
2022-09-23T01:53:43.349Z,100.00
2022-09-23T01:56:16.575Z,100.00
2022-09-23T01:58:47.777Z,100.00
2022-09-23T02:01:23.796Z,100.00
2022-09-23T02:03:55.386Z,100.00
2022-09-23T02:06:25.107Z,100.00
2022-09-23T02:08:57.879Z,100.00
2022-09-23T02:11:24.585Z,100.00
2022-09-23T02:13:55.936Z,100.00
2022-09-23T02:16:28.962Z,100.00
2022-09-23T02:19:01.689Z,100.00
2022-09-23T02:21:34.005Z,100.00
2022-09-23T02:24:09.020Z,100.00
2022-09-23T02:26:40.104Z,100.00
2022-09-23T02:29:14.658Z,100.00
2022-09-23T02:31:45.555Z,100.00
2022-09-23T02:34:19.797Z,100.00
2022-09-23T02:36:53.675Z,100.00
2022-09-23T02:39:26.972Z,100.00
2022-09-23T02:42:01.835Z,100.00
2022-09-23T02:44:28.872Z,100.00
2022-09-23T02:46:56.767Z,100.00
2022-09-23T02:49:26.524Z,100.00
2022-09-23T02:51:53.798Z,100.00
2022-09-23T02:54:22.641Z,100.00
2022-09-23T02:56:49.550Z,100.00
2022-09-23T02:59:18.176Z,100.00
2022-09-23T03:01:53.667Z,100.00
2022-09-23T03:04:30.270Z,100.00
2022-09-23T03:07:02.465Z,100.00
2022-09-23T03:09:33.991Z,100.00
2022-09-23T03:12:12.375Z,100.00
2022-09-23T03:14:47.059Z,100.00
2022-09-23T03:17:20.992Z,100.00
2022-09-23T03:19:53.819Z,100.00
2022-09-23T03:22:25.864Z,100.00
2022-09-23T03:24:54.592Z,100.00
2022-09-23T03:27:25.472Z,100.00
2022-09-23T03:29:53.908Z,100.00
2022-09-23T03:32:24.136Z,100.00
2022-09-23T03:34:55.660Z,100.00
2022-09-23T03:37:27.671Z,100.00
2022-09-23T03:40:00.479Z,100.00
2022-09-23T03:42:29.988Z,100.00
2022-09-23T03:44:57.540Z,100.00
2022-09-23T03:47:25.880Z,100.00
2022-09-23T03:49:54.672Z,100.00
2022-09-23T03:52:23.309Z,100.00
2022-09-23T03:54:50.341Z,100.00
2022-09-23T03:57:16.844Z,100.00
2022-09-23T03:59:43.506Z,100.00
2022-09-23T04:02:10.090Z,100.00
2022-09-23T04:04:38.424Z,100.00
2022-09-23T04:07:06.480Z,100.00
2022-09-23T04:09:33.164Z,100.00
2022-09-23T04:11:59.679Z,100.00
2022-09-23T04:14:26.563Z,100.00
2022-09-23T04:16:53.389Z,100.00
2022-09-23T04:19:20.140Z,100.00
2022-09-23T04:21:47.315Z,100.00
2022-09-23T04:24:16.408Z,100.00
2022-09-23T04:26:44.368Z,100.00
2022-09-23T04:29:11.244Z,100.00
2022-09-23T04:31:38.676Z,100.00
2022-09-23T04:34:05.270Z,100.00
2022-09-23T04:36:31.811Z,100.00
2022-09-23T04:38:58.367Z,100.00
2022-09-23T04:41:26.467Z,100.00
2022-09-23T04:43:53.274Z,100.00
2022-09-23T04:46:19.857Z,100.00
2022-09-23T04:48:46.448Z,100.00
2022-09-23T04:51:15.037Z,100.00
2022-09-23T04:53:43.516Z,100.00
2022-09-23T04:56:12.583Z,100.00
2022-09-23T04:58:41.241Z,100.00
2022-09-23T05:01:09.583Z,100.00
2022-09-23T05:03:36.133Z,100.00
2022-09-23T05:06:02.666Z,100.00
2022-09-23T05:08:29.303Z,100.00
2022-09-23T05:10:57.275Z,100.00
2022-09-23T05:13:23.909Z,100.00
2022-09-23T05:15:57.315Z,100.00
2022-09-23T05:18:24.146Z,100.00
2022-09-23T05:20:53.123Z,100.00
2022-09-23T05:23:19.685Z,100.00
2022-09-23T05:25:46.185Z,100.00
2022-09-23T05:28:12.723Z,100.00
2022-09-23T05:30:39.212Z,100.00
2022-09-23T05:33:07.108Z,100.00
2022-09-23T05:35:33.616Z,100.00
2022-09-23T05:38:00.289Z,100.00
2022-09-23T05:40:26.858Z,100.00
2022-09-23T05:42:53.554Z,100.00
2022-09-23T05:45:20.415Z,100.00
2022-09-23T05:47:46.951Z,100.00
2022-09-23T05:50:15.105Z,100.00
2022-09-23T05:52:41.636Z,100.00
2022-09-23T05:55:08.567Z,100.00
2022-09-23T05:57:35.060Z,100.00
2022-09-23T06:00:02.156Z,100.00
2022-09-23T06:02:28.729Z,100.00
2022-09-23T06:04:55.287Z,100.00
2022-09-23T06:07:23.188Z,100.00
2022-09-23T06:09:49.747Z,100.00
2022-09-23T06:12:16.323Z,100.00
2022-09-23T06:14:42.810Z,100.00
2022-09-23T06:17:09.341Z,100.00
2022-09-23T06:19:36.013Z,100.00
2022-09-23T06:22:02.521Z,100.00
2022-09-23T06:24:31.726Z,100.00
2022-09-23T06:26:58.596Z,100.00
2022-09-23T06:29:25.127Z,100.00
2022-09-23T06:31:51.720Z,100.00
2022-09-23T06:34:18.459Z,100.00
2022-09-23T06:36:46.580Z,99.49
2022-09-23T06:39:13.942Z,99.59
2022-09-23T06:41:42.250Z,99.88
2022-09-23T06:44:08.956Z,99.17
2022-09-23T06:46:35.513Z,99.49
2022-09-23T06:49:02.206Z,98.36
2022-09-23T06:51:28.723Z,98.52
2022-09-23T06:53:55.277Z,97.95
2022-09-23T06:56:21.906Z,98.71
2022-09-23T06:58:51.579Z,96.24
2022-09-23T07:01:19.786Z,95.92
2022-09-23T07:03:47.219Z,96.09
2022-09-23T07:06:14.122Z,96.39
2022-09-23T07:08:43.507Z,96.75
2022-09-23T07:11:10.388Z,96.67
2022-09-23T07:13:36.946Z,95.21
2022-09-23T07:16:05.177Z,96.47
2022-09-23T07:18:36.690Z,94.50
2022-09-23T07:21:08.577Z,94.10
2022-09-23T07:23:35.369Z,93.43
2022-09-23T07:26:01.918Z,93.46
2022-09-23T07:28:28.407Z,94.79
2022-09-23T07:31:00.485Z,93.67
2022-09-23T07:33:32.576Z,93.42
2022-09-23T07:36:03.380Z,92.45
2022-09-23T07:38:30.093Z,92.35
2022-09-23T07:41:01.398Z,92.08
2022-09-23T07:43:28.101Z,92.45
2022-09-23T07:45:54.674Z,93.24
2022-09-23T07:48:21.342Z,90.95
2022-09-23T07:50:49.320Z,91.13
2022-09-23T07:53:15.864Z,91.64
2022-09-23T07:55:42.410Z,91.94
2022-09-23T07:58:09.029Z,92.99
2022-09-23T08:00:35.583Z,91.68
2022-09-23T08:03:02.161Z,91.04
2022-09-23T08:05:28.769Z,90.80
2022-09-23T08:07:56.651Z,89.71
2022-09-23T08:10:23.416Z,88.71
2022-09-23T08:12:49.962Z,89.08
2022-09-23T08:15:16.749Z,87.95
2022-09-23T08:17:43.330Z,86.74
2022-09-23T08:20:10.416Z,86.46
2022-09-23T08:22:36.953Z,86.25
2022-09-23T08:25:08.496Z,84.18
2022-09-23T08:27:36.313Z,83.82
2022-09-23T08:30:02.876Z,82.26
2022-09-23T08:32:29.366Z,82.68
2022-09-23T08:34:55.901Z,81.49
2022-09-23T08:37:22.438Z,80.38
2022-09-23T08:39:48.920Z,77.92
2022-09-23T08:42:23.051Z,77.34
2022-09-23T08:44:53.675Z,78.42
2022-09-23T08:47:24.737Z,75.08
2022-09-23T08:49:57.078Z,76.01
2022-09-23T08:52:29.007Z,75.98
2022-09-23T08:54:55.778Z,76.26
2022-09-23T08:57:34.787Z,77.04
2022-09-23T09:00:02.661Z,75.91
2022-09-23T09:02:29.685Z,77.97
2022-09-23T09:05:01.923Z,76.55
2022-09-23T09:07:37.458Z,78.68
2022-09-23T09:10:10.975Z,75.74
2022-09-23T09:12:43.099Z,72.49
2022-09-23T09:15:13.360Z,72.32
2022-09-23T09:17:48.580Z,72.80
2022-09-23T09:20:29.813Z,71.98
2022-09-23T09:22:57.858Z,69.08
2022-09-23T09:25:36.264Z,68.81
2022-09-23T09:28:13.627Z,65.73
2022-09-23T09:30:41.082Z,65.89
2022-09-23T09:33:14.533Z,68.26
2022-09-23T09:35:56.681Z,66.22
2022-09-23T09:38:23.408Z,64.62
2022-09-23T09:40:50.479Z,63.47
2022-09-23T09:43:19.576Z,62.87
2022-09-23T09:45:58.089Z,62.81
2022-09-23T09:48:30.796Z,60.23
2022-09-23T09:50:57.348Z,61.77
2022-09-23T09:53:26.138Z,61.87
2022-09-23T09:56:05.008Z,60.97
2022-09-23T09:58:44.725Z,60.10
2022-09-23T10:01:19.709Z,61.16
2022-09-23T10:03:47.135Z,62.04
2022-09-23T10:06:16.909Z,58.52
2022-09-23T10:08:49.575Z,58.14
2022-09-23T10:11:18.013Z,58.97
2022-09-23T10:14:03.068Z,57.20
2022-09-23T10:16:31.835Z,60.51
2022-09-23T10:18:59.859Z,56.17
2022-09-23T10:21:33.793Z,54.81
2022-09-23T10:24:02.127Z,55.56
2022-09-23T10:26:31.049Z,55.77
2022-09-23T10:29:01.885Z,56.40
2022-09-23T10:31:30.229Z,57.02
2022-09-23T10:33:58.547Z,54.78
2022-09-23T10:36:25.859Z,54.18
2022-09-23T10:38:55.984Z,50.04
2022-09-23T10:41:32.121Z,48.90
2022-09-23T10:44:14.107Z,51.50
2022-09-23T10:46:49.676Z,50.25
2022-09-23T10:49:40.699Z,48.43
2022-09-23T10:52:21.733Z,48.81
2022-09-23T10:55:03.127Z,49.09
2022-09-23T10:57:47.280Z,46.60
2022-09-23T11:00:22.790Z,46.64
2022-09-23T11:03:21.582Z,44.19
2022-09-23T11:05:57.232Z,45.09
2022-09-23T11:08:39.618Z,45.17
2022-09-23T11:11:21.524Z,45.95
2022-09-23T11:14:05.331Z,45.25
2022-09-23T11:16:45.944Z,42.70
2022-09-23T11:19:29.181Z,43.20
2022-09-23T11:22:12.575Z,43.97
2022-09-23T11:24:59.202Z,45.50
2022-09-23T11:27:36.104Z,45.86
2022-09-23T11:30:08.561Z,44.95
2022-09-23T11:35:36.674Z,43.08
2022-09-23T11:38:08.210Z,42.19
2022-09-23T11:40:37.552Z,41.08
2022-09-23T11:43:18.309Z,41.30
2022-09-23T11:45:49.495Z,41.45
2022-09-23T11:48:23.369Z,42.51
2022-09-23T11:50:57.774Z,41.07
2022-09-23T11:53:41.595Z,40.29
2022-09-23T11:56:27.067Z,39.49
2022-09-23T11:59:04.280Z,40.44
2022-09-23T12:01:37.715Z,42.49
2022-09-23T12:04:20.079Z,40.05
2022-09-23T12:06:51.848Z,40.55
2022-09-23T12:09:40.920Z,41.86
2022-09-23T12:12:17.974Z,41.25
2022-09-23T12:14:55.528Z,39.28
2022-09-23T12:17:53.418Z,40.74
2022-09-23T12:20:53.461Z,39.58
2022-09-23T12:23:42.708Z,41.81
2022-09-23T12:26:15.375Z,40.53
2022-09-23T12:28:44.473Z,42.79
2022-09-23T12:31:13.724Z,39.97
2022-09-23T12:33:48.376Z,43.24
2022-09-23T12:36:14.923Z,42.40
2022-09-23T12:38:48.692Z,41.98
2022-09-23T12:41:23.708Z,40.61
2022-09-23T12:43:52.779Z,41.42
2022-09-23T12:46:21.434Z,41.92
2022-09-23T12:48:59.341Z,42.00
2022-09-23T12:51:26.566Z,40.59
2022-09-23T12:53:59.952Z,40.81
2022-09-23T12:56:42.684Z,40.21
2022-09-23T12:59:24.815Z,41.49
2022-09-23T13:01:51.810Z,39.82
2022-09-23T13:04:44.900Z,40.53
2022-09-23T13:07:16.136Z,40.85
2022-09-23T13:09:48.237Z,38.84
2022-09-23T13:12:19.964Z,42.73
2022-09-23T13:14:51.294Z,43.01
2022-09-23T13:17:29.647Z,42.98
2022-09-23T13:20:02.770Z,44.49
2022-09-23T13:23:03.151Z,42.22
2022-09-23T13:25:34.945Z,41.82
2022-09-23T13:28:02.542Z,42.76
2022-09-23T13:30:29.181Z,43.04
2022-09-23T13:33:05.060Z,41.85
2022-09-23T13:35:35.792Z,43.47
2022-09-23T13:38:09.922Z,42.25
2022-09-23T13:40:39.740Z,43.31
2022-09-23T13:43:12.316Z,41.10
2022-09-23T13:45:41.661Z,42.86
2022-09-23T13:48:11.665Z,41.90
2022-09-23T13:50:42.996Z,41.15
2022-09-23T13:53:12.903Z,40.29
2022-09-23T13:55:40.824Z,40.67
2022-09-23T13:58:15.505Z,41.22
2022-09-23T14:00:42.121Z,40.30
2022-09-23T14:03:36.788Z,40.23
2022-09-23T14:06:07.429Z,40.64
2022-09-23T14:08:34.053Z,40.80
2022-09-23T14:11:02.096Z,41.14
2022-09-23T14:13:30.881Z,41.90
2022-09-23T14:16:00.200Z,42.66
2022-09-23T14:18:35.065Z,43.10
2022-09-23T14:21:01.960Z,42.33
2022-09-23T14:23:28.551Z,43.50
2022-09-23T14:25:56.126Z,43.08
2022-09-23T14:28:26.876Z,42.83
2022-09-23T14:30:55.655Z,42.94
2022-09-23T14:33:26.052Z,44.82
2022-09-23T14:35:56.685Z,43.36
2022-09-23T14:38:26.542Z,43.90
2022-09-23T14:40:55.120Z,44.89
2022-09-23T14:43:26.726Z,46.12
2022-09-23T14:45:55.468Z,45.86
2022-09-23T14:48:24.810Z,45.92
2022-09-23T14:50:55.779Z,46.15
2022-09-23T14:53:34.596Z,46.30
2022-09-23T14:56:10.774Z,46.78
2022-09-23T14:58:49.508Z,47.42
2022-09-23T15:01:40.463Z,45.97
2022-09-23T15:04:16.693Z,47.35
2022-09-23T15:06:47.996Z,46.35
2022-09-23T15:09:20.407Z,48.30
2022-09-23T15:11:47.283Z,49.32
2022-09-23T15:14:36.636Z,46.07
2022-09-23T15:17:04.252Z,46.48
2022-09-23T15:19:30.906Z,46.80
2022-09-23T15:21:57.727Z,46.31
2022-09-23T15:24:40.805Z,47.15
2022-09-23T15:27:29.447Z,46.93
2022-09-23T15:30:02.556Z,47.07
2022-09-23T15:32:29.093Z,47.89
2022-09-23T15:34:55.580Z,47.25
2022-09-23T15:37:22.204Z,47.79
2022-09-23T15:39:48.811Z,47.94
2022-09-23T15:42:15.427Z,48.67
2022-09-23T15:44:42.165Z,49.75
2022-09-23T15:47:15.290Z,49.85
2022-09-23T15:49:44.592Z,49.35
2022-09-23T15:52:11.286Z,49.61
2022-09-23T15:54:37.809Z,50.06
2022-09-23T15:57:04.437Z,50.92
2022-09-23T15:59:31.336Z,51.50
2022-09-23T16:02:01.694Z,55.17
2022-09-23T16:04:29.555Z,54.21
2022-09-23T16:06:56.189Z,53.85
2022-09-23T16:09:22.832Z,56.02
2022-09-23T16:11:49.621Z,54.77
2022-09-23T16:14:17.818Z,55.80
2022-09-23T16:16:45.387Z,56.10
2022-09-23T16:19:12.395Z,58.80
2022-09-23T16:21:40.719Z,60.29
2022-09-23T16:24:14.541Z,58.41
2022-09-23T16:26:41.112Z,62.33
2022-09-23T16:29:09.984Z,59.93
2022-09-23T16:31:36.703Z,58.38
2022-09-23T16:34:03.489Z,60.82
2022-09-23T16:36:32.242Z,62.66
2022-09-23T16:39:01.554Z,64.54
2022-09-23T16:41:29.612Z,64.15
2022-09-23T16:43:56.165Z,63.54
2022-09-23T16:46:23.314Z,63.70
2022-09-23T16:48:52.894Z,66.06
2022-09-23T16:51:21.626Z,64.38
2022-09-23T16:53:49.308Z,64.48
2022-09-23T16:56:18.529Z,62.05
2022-09-23T16:58:45.501Z,63.77
2022-09-23T17:01:14.759Z,66.00
2022-09-23T17:03:41.270Z,67.80
2022-09-23T17:06:08.273Z,67.51
2022-09-23T17:08:35.039Z,66.51
2022-09-23T17:11:02.696Z,68.38
2022-09-23T17:13:30.582Z,68.34
2022-09-23T17:15:57.633Z,69.66
2022-09-23T17:18:25.363Z,70.20
2022-09-23T17:20:59.779Z,70.62
2022-09-23T17:23:26.464Z,72.06
2022-09-23T17:25:53.000Z,72.94
2022-09-23T17:28:19.601Z,73.53
2022-09-23T17:30:47.541Z,74.40
2022-09-23T17:33:14.034Z,74.39
2022-09-23T17:35:41.111Z,74.93
2022-09-23T17:38:07.708Z,75.57
2022-09-23T17:40:34.337Z,75.29
2022-09-23T17:43:00.881Z,75.39
2022-09-23T17:45:27.553Z,75.43
2022-09-23T17:47:55.433Z,75.53
2022-09-23T17:50:21.967Z,76.37
2022-09-23T17:52:48.665Z,76.44
2022-09-23T17:55:15.198Z,77.12
2022-09-23T17:57:41.681Z,78.51
2022-09-23T18:00:09.749Z,79.06
2022-09-23T18:02:36.286Z,78.65
2022-09-23T18:05:04.655Z,79.86
2022-09-23T18:07:32.094Z,80.63
2022-09-23T18:09:58.630Z,79.79
2022-09-23T18:12:25.175Z,79.14
2022-09-23T18:14:51.703Z,80.93
2022-09-23T18:17:18.218Z,81.15
2022-09-23T18:19:44.760Z,81.29
2022-09-23T18:22:12.620Z,80.77
2022-09-23T18:24:39.162Z,81.43
2022-09-23T18:27:05.669Z,81.14
2022-09-23T18:29:33.378Z,81.87
2022-09-23T18:31:59.982Z,81.84
2022-09-23T18:34:26.798Z,80.43
2022-09-23T18:36:53.292Z,81.70
2022-09-23T18:39:21.279Z,81.82
2022-09-23T18:41:47.930Z,80.70
2022-09-23T18:44:15.558Z,81.00
2022-09-23T18:46:42.402Z,82.23
2022-09-23T18:49:08.917Z,82.52
2022-09-23T18:51:37.937Z,82.83
2022-09-23T18:54:06.008Z,82.90
2022-09-23T18:56:39.481Z,83.26
2022-09-23T18:59:07.093Z,83.83
2022-09-23T19:01:34.441Z,83.66
2022-09-23T19:04:02.073Z,83.56
2022-09-23T19:06:31.252Z,83.83
2022-09-23T19:08:58.205Z,83.83
2022-09-23T19:11:25.051Z,85.61
2022-09-23T19:13:57.659Z,85.50
2022-09-23T19:16:25.358Z,85.97
2022-09-23T19:18:52.655Z,86.30
2022-09-23T19:21:21.428Z,86.42
2022-09-23T19:23:50.169Z,86.15
2022-09-23T19:26:18.541Z,85.99
2022-09-23T19:28:49.883Z,86.48
2022-09-23T19:31:19.481Z,87.38
2022-09-23T19:33:51.787Z,87.63
2022-09-23T19:36:23.467Z,87.49
2022-09-23T19:38:53.231Z,87.29
2022-09-23T19:41:19.787Z,87.09
2022-09-23T19:43:46.356Z,87.36
2022-09-23T19:46:12.878Z,87.65
2022-09-23T19:48:40.760Z,87.66
2022-09-23T19:51:07.491Z,87.28
2022-09-23T19:53:34.000Z,87.63
2022-09-23T19:56:01.663Z,87.38
2022-09-23T19:58:28.272Z,87.60
2022-09-23T20:00:54.814Z,88.66
2022-09-23T20:03:21.392Z,89.03
2022-09-23T20:05:55.424Z,88.69
2022-09-23T20:08:22.062Z,89.05
2022-09-23T20:10:48.596Z,89.72
2022-09-23T20:13:15.105Z,90.44
2022-09-23T20:15:41.702Z,88.97
2022-09-23T20:18:08.233Z,90.97
2022-09-23T20:20:34.770Z,89.83
2022-09-23T20:23:02.902Z,90.10
2022-09-23T20:25:29.542Z,91.32
2022-09-23T20:27:56.206Z,91.10
2022-09-23T20:30:22.848Z,90.75
2022-09-23T20:32:49.349Z,90.69
2022-09-23T20:35:16.017Z,90.39
2022-09-23T20:37:42.576Z,90.76
2022-09-23T20:40:10.840Z,89.87
2022-09-23T20:42:37.537Z,90.10
2022-09-23T20:45:04.792Z,89.39
2022-09-23T20:47:31.347Z,89.72
2022-09-23T20:49:57.832Z,90.03
2022-09-23T20:52:24.389Z,90.74
2022-09-23T20:54:50.899Z,90.07
2022-09-23T20:57:18.920Z,91.18
2022-09-23T20:59:45.495Z,91.21
2022-09-23T21:02:12.152Z,91.21
2022-09-23T21:04:38.843Z,91.18
2022-09-23T21:07:05.348Z,91.48
2022-09-23T21:09:32.011Z,90.76
2022-09-23T21:11:58.651Z,90.25
2022-09-23T21:14:26.538Z,90.14
2022-09-23T21:16:53.081Z,90.86
2022-09-23T21:19:19.701Z,90.36
2022-09-23T21:21:46.248Z,90.72
2022-09-23T21:24:42.211Z,91.17
2022-09-23T21:26:59.347Z,91.17
2022-09-23T21:29:27.230Z,91.37
2022-09-23T21:31:53.804Z,91.15
2022-09-23T21:34:20.453Z,91.72
2022-09-23T21:36:47.663Z,91.88
2022-09-23T21:39:14.275Z,91.85
2022-09-23T21:41:40.878Z,93.15
2022-09-23T21:44:07.425Z,92.83
2022-09-23T21:46:36.238Z,92.99
2022-09-23T21:49:03.921Z,92.17
2022-09-23T21:51:33.092Z,92.37
2022-09-23T21:53:59.940Z,92.44
2022-09-23T21:56:28.142Z,92.52
2022-09-23T21:58:56.384Z,92.56
2022-09-23T22:01:25.417Z,92.57
2022-09-23T22:03:54.925Z,92.50
2022-09-23T22:06:23.379Z,92.82
2022-09-23T22:08:51.546Z,93.72
2022-09-23T22:11:20.614Z,93.30
2022-09-23T22:13:47.117Z,93.40
2022-09-23T22:16:13.780Z,93.00
2022-09-23T22:18:40.328Z,93.01
2022-09-23T22:21:08.235Z,93.48
2022-09-23T22:23:34.748Z,94.48
2022-09-23T22:26:03.347Z,94.60
2022-09-23T22:28:32.294Z,95.15
2022-09-23T22:30:58.971Z,95.90
2022-09-23T22:33:25.540Z,95.64
2022-09-23T22:35:52.231Z,95.85
2022-09-23T22:38:20.155Z,96.00
2022-09-23T22:40:46.719Z,96.42
2022-09-23T22:43:13.322Z,97.02
2022-09-23T22:45:39.870Z,97.38
2022-09-23T22:48:06.584Z,97.90
2022-09-23T22:50:33.129Z,98.05
2022-09-23T22:52:59.671Z,97.94
2022-09-23T22:55:27.593Z,97.86
2022-09-23T22:57:54.224Z,98.27
2022-09-23T23:00:20.776Z,98.53
2022-09-23T23:02:47.281Z,98.34
2022-09-23T23:05:14.001Z,97.65
2022-09-23T23:07:40.511Z,97.54
2022-09-23T23:10:07.766Z,97.88
2022-09-23T23:12:35.664Z,98.17
2022-09-23T23:15:02.475Z,97.62
2022-09-23T23:17:28.979Z,98.17
2022-09-23T23:19:55.465Z,99.57
2022-09-23T23:22:22.078Z,99.67
2022-09-23T23:24:49.710Z,99.89
2022-09-23T23:27:16.240Z,98.85
2022-09-23T23:29:44.194Z,98.91
2022-09-23T23:32:10.833Z,99.06
2022-09-23T23:34:37.493Z,99.71
2022-09-23T23:37:04.119Z,99.85
2022-09-23T23:39:30.662Z,99.70
2022-09-23T23:41:58.233Z,99.84
2022-09-23T23:44:26.521Z,99.48
2022-09-23T23:46:55.104Z,99.54
2022-09-23T23:49:22.017Z,99.45
2022-09-23T23:51:48.901Z,99.79
2022-09-23T23:54:15.921Z,99.40
2022-09-23T23:56:42.709Z,99.64
2022-09-23T23:59:09.262Z,100.00
